Lubbock Preston Smith International Airport
KLBB : now visible

Airfield :











YOU CAN JOIN US ON...

 
LOGIN :

Register | Disclaimer

   EN    FR    IT 

 









Legend :    VFR   Marginal VFR   IFR   Intensive IFR   Very Intensive IFR
Visi :
Ceiling :
>= 8 km
>= 3000ft
5 to 8 km
1000 to 3000 ft
1500m to 5 km
500 to 1000 ft
800 to 1500m
200 to 500 ft
< 800m
< 200 ft
Symbols :   Thunderstorms  Fog  Heavy snow  Heavy precipitations  Wind > 20 kt






- Airport Elevation : 3282 ft
- IATA code : LBB


KLBB - Lubbock Preston Smith International

CURRENT METAR :
  • 160453Z 18014KT 5SM TSRA BR OVC070CB 16/13 A3003 RMK AO2 LTG DSNT SE AND S SLP128 OCNL LTGICCC ALQDS TS ALQDS MOV E P0025 T01610128

EXPIRED METARs :
  • 160353Z COR 19012KT 6SM TSRA BR FEW055 OVC070CB 16/13 A3003 RMK AO2 LTG DSNT ALQDS SLP132 FRQ LTGICCGCC N-E-SE-OHD TS N-E-SE-OHD MOV E P0056 T01610133
  • 160318Z 19014KT 6SM +TSRA BR FEW006 OVC034CB 16/14 A3003 RMK AO2 LTG DSNT ALQDS CONS LTGICCG ALQDS TS ALQDS MOV E P0046 T01560144
  • 160309Z 22016G20KT 2 1/2SM +TSRA BR BKN028CB OVC036 15/14 A3002 RMK AO2 TWR VIS 3 LTG DSNT ALQDS CONS LTGICCG ALQDS TS ALQDS MOV E P0038 T01500139

TAF KLBB
Valid from the 16 at 06:00 until the 17 at 06:00 UTC


160520Z 1606/1706 18015KT P6SM TSRA OVC070CB
FM161300 18011KT P6SM BKN025
FM161700 18015KT P6SM BKN110
KZFW FIR / North America



MET'MAP, your aeronautical weather chart ! - Copyright ORBIFLY December 2007 - Disclaimer

ORBIFLY MET'MAP TEAM :

Programming & Development : Alexandra Zaïnal
Concept & original design : Baudouin d'Aumeries
Assistance for programming : Marc-Olivier Méhu
Technical & hardware support : Manuel Goepfert

Contact : metmap@orbifly.com




SOURCES & CREDITS :

   NOAA       Earth
Advisory